Time;durP1;ratioP1;P1;durP2;ratioP2;P2;SDS_P1;SDS_P2;PMS_P1;PMS_P2;Temp;Humidity;BMP_temperature;BMP_pressure;BME280_temperature;BME280_humidity;BME280_pressure;Samples;Min_cycle;Max_cycle;Signal;HPM_P1;HPM_P2
2024/03/23 00:01:50;0.00;0.00;0.62;0.00;0.00;0.62;4.60;2.40;;;23.60;25.80;;;;;;2263463;61;20364;-64
2024/03/23 00:04:20;0.00;0.00;0.62;0.00;0.00;0.62;2.57;1.90;;;23.60;25.80;;;;;;2263832;61;20361;-64
2024/03/23 00:06:51;0.00;0.00;0.62;0.00;0.00;0.62;5.10;2.70;;;23.60;25.80;;;;;;2262834;61;20633;-64
2024/03/23 00:09:21;0.00;0.00;0.62;0.00;0.00;0.62;3.53;2.40;;;23.60;25.80;;;;;;2263599;61;20354;-64
2024/03/23 00:11:51;0.00;0.00;0.62;0.00;0.00;0.62;2.93;2.10;;;23.60;25.80;;;;;;2263834;61;20357;-64
2024/03/23 00:14:21;0.00;0.00;0.62;0.00;0.00;0.62;3.60;1.90;;;23.60;26.30;;;;;;2263361;61;20381;-64
2024/03/23 00:16:52;0.00;0.00;0.62;0.00;0.00;0.62;3.23;2.20;;;23.60;25.80;;;;;;2263530;61;20369;-64
2024/03/23 00:19:22;0.00;0.00;0.62;0.00;0.00;0.62;2.67;1.90;;;23.60;25.80;;;;;;2263437;61;20357;-64
2024/03/23 00:21:52;0.00;0.00;0.62;0.00;0.00;0.62;3.70;2.27;;;23.60;25.80;;;;;;2263318;61;20757;-63
2024/03/23 00:24:22;0.00;0.00;0.62;0.00;0.00;0.62;3.63;2.00;;;23.60;26.30;;;;;;2263712;61;20402;-64
2024/03/23 00:26:52;0.00;0.00;0.62;0.00;0.00;0.62;4.43;2.03;;;23.60;25.80;;;;;;2263554;61;20784;-64
2024/03/23 00:29:23;0.00;0.00;0.62;0.00;0.00;0.62;3.30;1.90;;;23.60;25.80;;;;;;2263495;61;20754;-64
2024/03/23 00:31:53;0.00;0.00;0.62;0.00;0.00;0.62;2.80;2.03;;;23.60;25.80;;;;;;2263290;61;20369;-64
2024/03/23 00:34:23;0.00;0.00;0.62;0.00;0.00;0.62;3.03;2.10;;;23.60;25.80;;;;;;2263647;61;20361;-64
2024/03/23 00:36:53;0.00;0.00;0.62;0.00;0.00;0.62;6.97;3.03;;;23.50;25.70;;;;;;2263339;61;20910;-64
2024/03/23 00:39:31;0.00;0.00;0.62;0.00;0.00;0.62;3.67;2.07;;;23.60;25.80;;;;;;1684694;73;20890;-65
2024/03/23 00:42:02;0.00;0.00;0.62;0.00;0.00;0.62;3.60;2.27;;;23.60;25.80;;;;;;2274930;60;20360;-66
2024/03/23 00:44:32;0.00;0.00;0.62;0.00;0.00;0.62;4.93;2.50;;;23.50;26.30;;;;;;2274681;60;21001;-66
2024/03/23 00:47:02;0.00;0.00;0.62;0.00;0.00;0.62;3.00;2.03;;;23.50;25.70;;;;;;2274792;60;20378;-66
2024/03/23 00:49:32;0.00;0.00;0.62;0.00;0.00;0.62;3.40;2.10;;;23.50;25.70;;;;;;2274969;60;20359;-66
2024/03/23 00:52:03;0.00;0.00;0.62;0.00;0.00;0.62;4.17;2.30;;;23.50;26.20;;;;;;2274661;60;20373;-65
2024/03/23 00:54:30;0.00;0.00;0.62;0.00;0.00;0.62;2.93;1.90;;;23.50;25.70;;;;;;2275007;60;20358;-66
2024/03/23 00:56:56;0.00;0.00;0.62;0.00;0.00;0.62;4.80;2.57;;;23.50;25.70;;;;;;2274570;60;20374;-66
2024/03/23 00:59:27;0.00;0.00;0.62;0.00;0.00;0.62;3.70;2.10;;;23.50;25.70;;;;;;2274513;60;20402;-65
2024/03/23 01:01:53;0.00;0.00;0.62;0.00;0.00;0.62;3.40;1.80;;;23.50;25.70;;;;;;2274512;60;20385;-65
2024/03/23 01:04:19;0.00;0.00;0.62;0.00;0.00;0.62;3.13;1.90;;;23.50;25.70;;;;;;2274555;60;20492;-64
2024/03/23 01:06:45;0.00;0.00;0.62;0.00;0.00;0.62;5.83;1.77;;;23.50;25.70;;;;;;2274671;60;20424;-65
2024/03/23 01:09:11;0.00;0.00;0.62;0.00;0.00;0.62;3.37;2.20;;;23.50;25.70;;;;;;2274730;60;20355;-65
2024/03/23 01:11:38;0.00;0.00;0.62;0.00;0.00;0.62;3.03;1.60;;;23.50;25.70;;;;;;2274600;60;20350;-65
2024/03/23 01:14:05;0.00;0.00;0.62;0.00;0.00;0.62;3.50;1.80;;;23.50;25.70;;;;;;2274607;60;20879;-66
2024/03/23 01:16:31;0.00;0.00;0.62;0.00;0.00;0.62;4.30;2.33;;;23.50;25.70;;;;;;2274900;60;20491;-66
2024/03/23 01:18:57;0.00;0.00;0.62;0.00;0.00;0.62;2.83;2.03;;;23.50;25.70;;;;;;2274580;60;20490;-66
2024/03/23 01:21:24;0.00;0.00;0.62;0.00;0.00;0.62;3.50;2.17;;;23.50;25.70;;;;;;2274720;60;20385;-66
2024/03/23 01:23:50;0.00;0.00;0.62;0.00;0.00;0.62;3.90;2.07;;;23.50;25.70;;;;;;2274705;60;20490;-65
2024/03/23 01:26:16;0.00;0.00;0.62;0.00;0.00;0.62;3.33;2.07;;;23.50;25.70;;;;;;2274556;60;20851;-65
2024/03/23 01:28:44;0.00;0.00;0.62;0.00;0.00;0.62;4.17;2.00;;;23.50;25.70;;;;;;2274578;60;20350;-66
2024/03/23 01:31:10;0.00;0.00;0.62;0.00;0.00;0.62;3.80;2.10;;;23.50;25.70;;;;;;2274631;60;20350;-66
2024/03/23 01:33:36;0.00;0.00;0.62;0.00;0.00;0.62;3.43;1.90;;;23.50;25.70;;;;;;2274851;60;20354;-66
2024/03/23 01:36:02;0.00;0.00;0.62;0.00;0.00;0.62;2.73;2.10;;;23.50;25.70;;;;;;2274477;60;20891;-65
2024/03/23 01:38:29;0.00;0.00;0.62;0.00;0.00;0.62;3.70;2.07;;;23.50;25.70;;;;;;2274402;60;20385;-66
2024/03/23 01:40:57;0.00;0.00;0.62;0.00;0.00;0.62;3.60;2.07;;;23.50;25.70;;;;;;2274416;60;20377;-63
2024/03/23 01:43:23;0.00;0.00;0.62;0.00;0.00;0.62;3.03;1.83;;;23.60;25.70;;;;;;2274708;60;20406;-66
2024/03/23 01:45:52;0.00;0.00;0.62;0.00;0.00;0.62;4.27;2.53;;;23.50;25.70;;;;;;2274572;60;20435;-65
2024/03/23 01:48:20;0.00;0.00;0.62;0.00;0.00;0.62;4.77;1.90;;;23.50;25.70;;;;;;2274817;60;20445;-64
2024/03/23 01:50:48;0.00;0.00;0.62;0.00;0.00;0.62;2.53;1.70;;;23.50;25.60;;;;;;2271821;61;20355;-65
2024/03/23 01:53:17;0.00;0.00;0.62;0.00;0.00;0.62;5.07;2.50;;;23.50;25.60;;;;;;2271878;61;20876;-65
2024/03/23 01:55:43;0.00;0.00;0.62;0.00;0.00;0.62;3.23;1.90;;;23.50;25.70;;;;;;2271858;61;20358;-65
2024/03/23 01:58:09;0.00;0.00;0.62;0.00;0.00;0.62;4.00;2.20;;;23.50;25.60;;;;;;2271662;61;20372;-65
2024/03/23 02:00:35;0.00;0.00;0.62;0.00;0.00;0.62;3.50;1.60;;;23.50;25.60;;;;;;2271862;61;20958;-65
2024/03/23 02:03:23;0.00;0.00;0.62;0.00;0.00;0.62;2.77;1.73;;;23.50;25.60;;;;;;2271725;61;20349;-66
2024/03/23 02:05:49;0.00;0.00;0.62;0.00;0.00;0.62;2.67;1.70;;;23.50;25.60;;;;;;2271461;61;20375;-65
2024/03/23 02:08:15;0.00;0.00;0.62;0.00;0.00;0.62;3.40;1.80;;;23.50;25.60;;;;;;2271920;61;20848;-65
2024/03/23 02:10:42;0.00;0.00;0.62;0.00;0.00;0.62;5.20;1.90;;;23.50;25.60;;;;;;2271891;61;20756;-65
2024/03/23 02:13:08;0.00;0.00;0.62;0.00;0.00;0.62;3.43;1.70;;;23.50;25.60;;;;;;2271472;61;20358;-63
2024/03/23 02:15:34;0.00;0.00;0.62;0.00;0.00;0.62;3.20;2.10;;;23.50;25.60;;;;;;2271879;61;20348;-64
2024/03/23 02:18:00;0.00;0.00;0.62;0.00;0.00;0.62;2.87;1.57;;;23.50;25.60;;;;;;2271643;61;20364;-64
2024/03/23 02:20:28;0.00;0.00;0.62;0.00;0.00;0.62;3.20;1.40;;;23.50;25.60;;;;;;2271398;61;20459;-64
2024/03/23 02:22:55;0.00;0.00;0.62;0.00;0.00;0.62;4.93;2.00;;;23.40;25.50;;;;;;2271840;61;20808;-65
2024/03/23 02:25:21;0.00;0.00;0.62;0.00;0.00;0.62;2.50;1.63;;;23.50;25.60;;;;;;2271788;61;20771;-65
2024/03/23 02:27:47;0.00;0.00;0.62;0.00;0.00;0.62;3.83;1.83;;;23.50;25.60;;;;;;2271663;61;20363;-65
2024/03/23 02:30:14;0.00;0.00;0.62;0.00;0.00;0.62;3.07;1.80;;;23.50;25.60;;;;;;2271371;61;20910;-65
2024/03/23 02:32:40;0.00;0.00;0.62;0.00;0.00;0.62;2.70;1.60;;;23.40;25.50;;;;;;2271188;61;20390;-62
2024/03/23 02:35:06;0.00;0.00;0.62;0.00;0.00;0.62;4.03;2.10;;;23.40;25.50;;;;;;2271591;61;20356;-65
2024/03/23 02:37:32;0.00;0.00;0.62;0.00;0.00;0.62;2.90;1.70;;;23.40;25.50;;;;;;2271734;61;20411;-65
2024/03/23 02:40:00;0.00;0.00;0.62;0.00;0.00;0.62;3.20;2.30;;;23.40;25.50;;;;;;2271850;61;20737;-64
2024/03/23 02:42:26;0.00;0.00;0.62;0.00;0.00;0.62;2.93;1.80;;;23.40;25.50;;;;;;2271407;61;20358;-65
2024/03/23 02:44:52;0.00;0.00;0.62;0.00;0.00;0.62;5.10;2.13;;;23.40;25.50;;;;;;2271719;61;20940;-65
2024/03/23 02:47:18;0.00;0.00;0.62;0.00;0.00;0.62;6.03;2.20;;;23.40;25.50;;;;;;2271745;61;20381;-66
2024/03/23 02:49:45;0.00;0.00;0.62;0.00;0.00;0.62;3.00;1.67;;;23.40;25.50;;;;;;2271485;61;20804;-65
2024/03/23 02:52:11;0.00;0.00;0.62;0.00;0.00;0.62;4.27;1.73;;;23.40;25.50;;;;;;2267598;61;20463;-65
2024/03/23 02:54:37;0.00;0.00;0.62;0.00;0.00;0.62;3.30;1.67;;;23.40;25.50;;;;;;2267865;61;20672;-65
2024/03/23 02:57:05;0.00;0.00;0.62;0.00;0.00;0.62;6.30;2.10;;;23.40;25.50;;;;;;2268658;60;20739;-63
2024/03/23 02:59:31;0.00;0.00;0.62;0.00;0.00;0.62;2.73;1.90;;;23.40;25.50;;;;;;2270943;61;20378;-66
2024/03/23 03:01:57;0.00;0.00;0.62;0.00;0.00;0.62;4.40;1.80;;;23.40;25.50;;;;;;2271206;60;20701;-66
2024/03/23 03:04:23;0.00;0.00;0.62;0.00;0.00;0.62;2.90;1.80;;;23.40;25.50;;;;;;2271366;61;20767;-65
2024/03/23 03:06:49;0.00;0.00;0.62;0.00;0.00;0.62;3.10;1.80;;;23.40;25.50;;;;;;2271742;61;20363;-65
2024/03/23 03:09:15;0.00;0.00;0.62;0.00;0.00;0.62;3.50;2.10;;;23.40;25.50;;;;;;2271101;61;20387;-64
2024/03/23 03:11:41;0.00;0.00;0.62;0.00;0.00;0.62;3.10;1.97;;;23.40;25.50;;;;;;2271456;61;20457;-65
2024/03/23 03:14:09;0.00;0.00;0.62;0.00;0.00;0.62;3.37;1.97;;;23.40;25.50;;;;;;2271810;61;20355;-63
2024/03/23 03:16:35;0.00;0.00;0.62;0.00;0.00;0.62;2.53;1.40;;;23.40;25.50;;;;;;2271283;61;20379;-65
2024/03/23 03:19:01;0.00;0.00;0.62;0.00;0.00;0.62;3.50;1.80;;;23.40;25.50;;;;;;2271376;61;20375;-65
2024/03/23 03:21:28;0.00;0.00;0.62;0.00;0.00;0.62;2.87;1.70;;;23.40;25.50;;;;;;2271689;61;20861;-64
2024/03/23 03:23:56;0.00;0.00;0.62;0.00;0.00;0.62;3.63;2.00;;;23.40;25.50;;;;;;2271563;61;20763;-64
2024/03/23 03:26:22;0.00;0.00;0.62;0.00;0.00;0.62;4.20;1.70;;;23.40;25.50;;;;;;2271698;61;20379;-65
2024/03/23 03:28:49;0.00;0.00;0.62;0.00;0.00;0.62;3.73;1.70;;;23.40;25.50;;;;;;2271829;61;20347;-64
2024/03/23 03:31:16;0.00;0.00;0.62;0.00;0.00;0.62;4.20;2.03;;;23.40;25.50;;;;;;2271203;61;20359;-65
2024/03/23 03:33:43;0.00;0.00;0.62;0.00;0.00;0.62;4.10;1.90;;;23.40;25.50;;;;;;2271707;61;20355;-65
2024/03/23 03:36:09;0.00;0.00;0.62;0.00;0.00;0.62;2.80;1.90;;;23.40;25.50;;;;;;2271840;61;20406;-66
2024/03/23 03:38:35;0.00;0.00;0.62;0.00;0.00;0.62;4.17;1.93;;;23.40;25.50;;;;;;2271224;61;20379;-65
2024/03/23 03:41:01;0.00;0.00;0.62;0.00;0.00;0.62;3.67;2.13;;;23.40;25.40;;;;;;2271481;61;20351;-65
2024/03/23 03:43:27;0.00;0.00;0.62;0.00;0.00;0.62;2.90;1.67;;;23.40;25.50;;;;;;2271813;61;20347;-65
2024/03/23 03:45:54;0.00;0.00;0.62;0.00;0.00;0.62;5.73;1.83;;;23.40;25.40;;;;;;2271233;61;20363;-65
2024/03/23 03:48:22;0.00;0.00;0.62;0.00;0.00;0.62;2.87;1.80;;;23.40;25.60;;;;;;2271481;61;20398;-65
2024/03/23 03:50:50;0.00;0.00;0.62;0.00;0.00;0.62;4.27;1.70;;;23.40;25.40;;;;;;2271577;61;20347;-63
2024/03/23 03:53:16;0.00;0.00;0.62;0.00;0.00;0.62;3.07;1.97;;;23.40;25.40;;;;;;2271294;61;20363;-64
2024/03/23 03:55:42;0.00;0.00;0.62;0.00;0.00;0.62;3.63;1.90;;;23.30;25.30;;;;;;2271010;60;20397;-63
2024/03/23 03:58:08;0.00;0.00;0.62;0.00;0.00;0.62;2.67;1.50;;;23.30;25.30;;;;;;2271598;61;20381;-64
2024/03/23 04:00:35;0.00;0.00;0.62;0.00;0.00;0.62;2.83;1.80;;;23.30;25.30;;;;;;2271243;61;20907;-65
2024/03/23 04:03:01;0.00;0.00;0.62;0.00;0.00;0.62;3.67;1.73;;;23.30;25.30;;;;;;2271180;61;20347;-65
2024/03/23 04:05:29;0.00;0.00;0.62;0.00;0.00;0.62;2.17;1.23;;;23.30;25.30;;;;;;2270857;61;20390;-63
2024/03/23 04:07:55;0.00;0.00;0.62;0.00;0.00;0.62;4.60;2.07;;;23.30;25.30;;;;;;2271130;61;20420;-65
2024/03/23 04:10:21;0.00;0.00;0.62;0.00;0.00;0.62;4.97;2.53;;;23.30;25.30;;;;;;2271181;61;20812;-66
2024/03/23 04:12:48;0.00;0.00;0.62;0.00;0.00;0.62;2.80;1.63;;;23.30;25.30;;;;;;2271662;60;20347;-65
2024/03/23 04:15:14;0.00;0.00;0.62;0.00;0.00;0.62;3.13;1.63;;;23.30;25.30;;;;;;2271518;61;20354;-65
2024/03/23 04:17:42;0.00;0.00;0.62;0.00;0.00;0.62;4.27;2.23;;;23.30;25.30;;;;;;2271618;61;20458;-65
2024/03/23 04:20:11;0.00;0.00;0.62;0.00;0.00;0.62;5.43;1.83;;;23.30;25.30;;;;;;2271660;61;20366;-66
2024/03/23 04:22:38;0.00;0.00;0.62;0.00;0.00;0.62;3.13;1.90;;;23.30;25.30;;;;;;2271072;61;20396;-64
2024/03/23 04:25:06;0.00;0.00;0.62;0.00;0.00;0.62;3.10;1.60;;;23.30;25.30;;;;;;2271599;61;20864;-66
2024/03/23 04:27:32;0.00;0.00;0.62;0.00;0.00;0.62;2.97;1.90;;;23.30;25.30;;;;;;2271750;61;20367;-65
2024/03/23 04:30:00;0.00;0.00;0.62;0.00;0.00;0.62;4.10;2.13;;;23.30;25.30;;;;;;2271313;61;20344;-66
2024/03/23 04:32:27;0.00;0.00;0.62;0.00;0.00;0.62;3.20;1.60;;;23.30;25.30;;;;;;2271231;61;20768;-66
2024/03/23 04:34:54;0.00;0.00;0.62;0.00;0.00;0.62;3.60;1.97;;;23.30;25.30;;;;;;2271494;61;20351;-65
2024/03/23 04:37:20;0.00;0.00;0.62;0.00;0.00;0.62;2.80;1.73;;;23.30;25.30;;;;;;2271066;61;20967;-66
2024/03/23 04:39:48;0.00;0.00;0.62;0.00;0.00;0.62;2.40;1.40;;;23.30;25.80;;;;;;2271387;61;20390;-66
2024/03/23 04:42:15;0.00;0.00;0.62;0.00;0.00;0.62;4.10;1.30;;;23.30;25.30;;;;;;2271479;61;20884;-66
2024/03/23 04:44:41;0.00;0.00;0.62;0.00;0.00;0.62;2.93;1.90;;;23.30;25.30;;;;;;2271206;61;20526;-65
2024/03/23 04:47:08;0.00;0.00;0.62;0.00;0.00;0.62;3.73;1.77;;;23.30;25.30;;;;;;2271597;61;20378;-65
2024/03/23 04:49:36;0.00;0.00;0.62;0.00;0.00;0.62;3.50;1.37;;;23.30;25.30;;;;;;2271555;61;20868;-66
2024/03/23 04:52:05;0.00;0.00;0.62;0.00;0.00;0.62;3.00;1.67;;;23.30;25.30;;;;;;2270769;61;20956;-65
2024/03/23 04:54:34;0.00;0.00;0.62;0.00;0.00;0.62;3.30;2.20;;;23.30;25.30;;;;;;2271620;61;20363;-66
2024/03/23 04:57:02;0.00;0.00;0.62;0.00;0.00;0.62;3.43;1.90;;;23.30;25.30;;;;;;2271355;61;20386;-65
2024/03/23 04:59:28;0.00;0.00;0.62;0.00;0.00;0.62;3.67;1.50;;;23.30;25.30;;;;;;2270828;61;20375;-65
2024/03/23 05:01:54;0.00;0.00;0.62;0.00;0.00;0.62;3.30;2.10;;;23.30;25.30;;;;;;2270733;61;20355;-65
2024/03/23 05:04:20;0.00;0.00;0.62;0.00;0.00;0.62;4.20;2.17;;;23.20;25.20;;;;;;2271521;61;20359;-66
2024/03/23 05:06:46;0.00;0.00;0.62;0.00;0.00;0.62;2.90;1.60;;;23.30;25.20;;;;;;2271146;60;20476;-66
2024/03/23 05:09:12;0.00;0.00;0.62;0.00;0.00;0.62;3.00;1.43;;;23.20;25.20;;;;;;2271259;61;20343;-65
2024/03/23 05:11:39;0.00;0.00;0.62;0.00;0.00;0.62;3.97;2.00;;;23.20;25.20;;;;;;2271200;61;20346;-66
2024/03/23 05:14:06;0.00;0.00;0.62;0.00;0.00;0.62;2.50;1.57;;;23.20;25.10;;;;;;2271154;61;20850;-66
2024/03/23 05:16:33;0.00;0.00;0.62;0.00;0.00;0.62;2.63;1.77;;;23.20;25.20;;;;;;2271228;61;20371;-66
2024/03/23 05:18:59;0.00;0.00;0.62;0.00;0.00;0.62;3.80;2.00;;;23.20;25.10;;;;;;2271413;61;20437;-65
2024/03/23 05:21:25;0.00;0.00;0.62;0.00;0.00;0.62;2.97;1.77;;;23.20;25.10;;;;;;2271052;61;20734;-65
2024/03/23 05:23:51;0.00;0.00;0.62;0.00;0.00;0.62;3.03;1.50;;;23.20;25.10;;;;;;2271265;60;20382;-66
2024/03/23 05:26:17;0.00;0.00;0.62;0.00;0.00;0.62;3.03;1.83;;;23.20;25.00;;;;;;2272194;61;20378;-66
2024/03/23 05:28:43;0.00;0.00;0.62;0.00;0.00;0.62;3.70;1.60;;;23.20;25.10;;;;;;2271928;61;20873;-66
2024/03/23 05:31:11;0.00;0.00;0.62;0.00;0.00;0.62;3.33;1.37;;;23.20;25.10;;;;;;2271709;61;20394;-66
2024/03/23 05:33:40;0.00;0.00;0.62;0.00;0.00;0.62;4.30;1.60;;;23.20;25.00;;;;;;2272361;61;20582;-65
2024/03/23 05:36:11;0.00;0.00;0.62;0.00;0.00;0.62;3.23;1.50;;;23.20;25.00;;;;;;2271497;61;20443;-63
2024/03/23 05:38:37;0.00;0.00;0.62;0.00;0.00;0.62;3.40;1.97;;;23.20;25.00;;;;;;2271783;61;20379;-66
2024/03/23 05:41:03;0.00;0.00;0.62;0.00;0.00;0.62;3.00;1.47;;;23.20;25.00;;;;;;2272050;61;20774;-65
2024/03/23 05:43:29;0.00;0.00;0.62;0.00;0.00;0.62;6.40;2.07;;;23.20;25.00;;;;;;2271611;61;20355;-65
2024/03/23 05:45:56;0.00;0.00;0.62;0.00;0.00;0.62;3.10;1.50;;;23.20;25.00;;;;;;2272066;61;20379;-66
2024/03/23 05:48:25;0.00;0.00;0.62;0.00;0.00;0.62;5.43;1.93;;;23.20;24.90;;;;;;2272134;61;20353;-66
2024/03/23 05:50:52;0.00;0.00;0.62;0.00;0.00;0.62;4.47;2.17;;;23.20;24.90;;;;;;2271671;61;20352;-65
2024/03/23 05:53:21;0.00;0.00;0.62;0.00;0.00;0.62;3.43;1.80;;;23.20;24.90;;;;;;2271574;61;20893;-65
2024/03/23 05:55:48;0.00;0.00;0.62;0.00;0.00;0.62;4.10;2.10;;;23.20;24.90;;;;;;2272226;61;20378;-65
2024/03/23 05:58:15;0.00;0.00;0.62;0.00;0.00;0.62;3.80;2.00;;;23.20;24.90;;;;;;2271555;61;20401;-66
2024/03/23 06:00:42;0.00;0.00;0.62;0.00;0.00;0.62;6.47;2.70;;;23.20;24.90;;;;;;2271942;61;20346;-65
2024/03/23 06:03:08;0.00;0.00;0.62;0.00;0.00;0.62;4.70;2.50;;;23.20;24.90;;;;;;2271815;61;20359;-66
2024/03/23 06:05:36;0.00;0.00;0.62;0.00;0.00;0.62;5.43;2.80;;;23.20;24.90;;;;;;2271421;61;20386;-65
2024/03/23 06:08:02;0.00;0.00;0.62;0.00;0.00;0.62;4.03;2.50;;;23.20;24.90;;;;;;2271698;61;20378;-64
2024/03/23 06:10:28;0.00;0.00;0.62;0.00;0.00;0.62;5.40;3.43;;;23.20;24.90;;;;;;2272072;61;20356;-65
2024/03/23 06:12:55;0.00;0.00;0.62;0.00;0.00;0.62;3.53;2.47;;;23.10;24.80;;;;;;2271420;61;20439;-65
2024/03/23 06:15:22;0.00;0.00;0.62;0.00;0.00;0.62;4.43;2.90;;;23.20;24.80;;;;;;2272082;61;20456;-65
2024/03/23 06:17:48;0.00;0.00;0.62;0.00;0.00;0.62;6.10;3.57;;;23.20;24.80;;;;;;2271914;61;20375;-66
2024/03/23 06:20:15;0.00;0.00;0.62;0.00;0.00;0.62;4.90;3.00;;;23.10;24.80;;;;;;2271600;61;20351;-66
2024/03/23 06:22:42;0.00;0.00;0.62;0.00;0.00;0.62;5.00;3.70;;;23.20;24.90;;;;;;2271857;61;20367;-66
2024/03/23 06:25:09;0.00;0.00;0.62;0.00;0.00;0.62;5.93;3.77;;;23.10;24.80;;;;;;2271823;61;20764;-65
2024/03/23 06:27:35;0.00;0.00;0.62;0.00;0.00;0.62;4.20;3.00;;;23.10;24.80;;;;;;2271616;61;20965;-65
2024/03/23 06:30:01;0.00;0.00;0.62;0.00;0.00;0.62;4.33;3.20;;;23.10;24.80;;;;;;2271907;61;20821;-65
2024/03/23 06:32:29;0.00;0.00;0.62;0.00;0.00;0.62;5.83;3.67;;;23.10;24.80;;;;;;2272032;61;20354;-65
2024/03/23 06:34:55;0.00;0.00;0.62;0.00;0.00;0.62;6.23;3.87;;;23.10;24.80;;;;;;2271258;60;20347;-66
2024/03/23 06:37:21;0.00;0.00;0.62;0.00;0.00;0.62;5.77;4.03;;;23.10;25.00;;;;;;2271522;61;20382;-66
2024/03/23 06:39:49;0.00;0.00;0.62;0.00;0.00;0.62;6.20;3.40;;;23.10;24.80;;;;;;2271875;61;20368;-66
2024/03/23 06:42:15;0.00;0.00;0.62;0.00;0.00;0.62;4.30;3.10;;;23.10;24.80;;;;;;2271443;61;20367;-65
2024/03/23 06:44:41;0.00;0.00;0.62;0.00;0.00;0.62;4.73;3.33;;;23.10;24.80;;;;;;2271624;61;20792;-66
2024/03/23 06:47:07;0.00;0.00;0.62;0.00;0.00;0.62;5.73;4.17;;;23.10;24.80;;;;;;2271345;61;20382;-65
2024/03/23 06:49:33;0.00;0.00;0.62;0.00;0.00;0.62;4.93;3.70;;;23.10;24.80;;;;;;2271509;61;20376;-65
2024/03/23 06:52:00;0.00;0.00;0.62;0.00;0.00;0.62;5.13;3.40;;;23.10;24.80;;;;;;2271704;61;20363;-65
2024/03/23 06:54:26;0.00;0.00;0.62;0.00;0.00;0.62;5.87;3.80;;;23.10;24.80;;;;;;2271508;61;20453;-64
2024/03/23 06:56:54;0.00;0.00;0.62;0.00;0.00;0.62;8.00;3.87;;;23.10;24.80;;;;;;2271452;61;20363;-65
2024/03/23 06:59:20;0.00;0.00;0.62;0.00;0.00;0.62;6.27;3.60;;;23.10;24.80;;;;;;2271547;61;20917;-65
2024/03/23 07:01:46;0.00;0.00;0.62;0.00;0.00;0.62;4.70;3.60;;;23.10;24.80;;;;;;2271710;61;20335;-65
2024/03/23 07:04:12;0.00;0.00;0.62;0.00;0.00;0.62;6.50;4.60;;;23.10;24.80;;;;;;2271199;61;20344;-63
2024/03/23 07:06:43;0.00;0.00;0.62;0.00;0.00;0.62;7.30;4.40;;;23.10;24.80;;;;;;2271719;61;20759;-64
2024/03/23 07:09:09;0.00;0.00;0.62;0.00;0.00;0.62;6.00;3.93;;;23.10;24.80;;;;;;2271969;61;20379;-65
2024/03/23 07:11:35;0.00;0.00;0.62;0.00;0.00;0.62;5.07;3.67;;;23.10;24.80;;;;;;2271132;61;20355;-65
2024/03/23 07:14:03;0.00;0.00;0.62;0.00;0.00;0.62;7.10;4.27;;;23.10;24.80;;;;;;2271592;61;20792;-65
2024/03/23 07:16:29;0.00;0.00;0.62;0.00;0.00;0.62;7.97;4.30;;;23.10;24.80;;;;;;2271728;61;20383;-65
2024/03/23 07:18:55;0.00;0.00;0.62;0.00;0.00;0.62;5.93;3.80;;;23.10;24.80;;;;;;2272416;61;20375;-66
2024/03/23 07:21:22;0.00;0.00;0.62;0.00;0.00;0.62;5.67;3.90;;;23.10;24.80;;;;;;2272201;61;20359;-66
2024/03/23 07:23:48;0.00;0.00;0.62;0.00;0.00;0.62;7.00;4.60;;;23.10;24.80;;;;;;2272101;61;20397;-64
2024/03/23 07:26:14;0.00;0.00;0.62;0.00;0.00;0.62;7.03;4.50;;;23.10;24.80;;;;;;2271627;61;20416;-65
2024/03/23 07:28:43;0.00;0.00;0.62;0.00;0.00;0.62;6.30;4.10;;;23.10;24.80;;;;;;2271881;61;20347;-65
2024/03/23 07:31:14;0.00;0.00;0.62;0.00;0.00;0.62;6.43;4.20;;;23.10;24.80;;;;;;2271741;61;20412;-64
2024/03/23 07:33:43;0.00;0.00;0.62;0.00;0.00;0.62;6.57;4.20;;;23.10;24.80;;;;;;2271594;61;20347;-64
2024/03/23 07:36:10;0.00;0.00;0.62;0.00;0.00;0.62;4.67;3.77;;;23.10;24.80;;;;;;2271586;61;20378;-64
2024/03/23 07:38:36;0.00;0.00;0.62;0.00;0.00;0.62;7.70;4.43;;;23.10;24.80;;;;;;2272056;61;20481;-64
2024/03/23 07:41:04;0.00;0.00;0.62;0.00;0.00;0.62;4.97;3.57;;;23.10;24.80;;;;;;2271533;61;20381;-64
2024/03/23 07:43:30;0.00;0.00;0.62;0.00;0.00;0.62;7.20;4.43;;;23.10;24.80;;;;;;2272067;61;20354;-64
2024/03/23 07:45:56;0.00;0.00;0.62;0.00;0.00;0.62;4.80;3.93;;;23.10;24.90;;;;;;2272001;61;20882;-65
2024/03/23 07:48:24;0.00;0.00;0.62;0.00;0.00;0.62;6.33;4.30;;;23.10;24.90;;;;;;2271796;61;21042;-65
2024/03/23 07:51:01;0.00;0.00;0.62;0.00;0.00;0.62;5.70;3.93;;;23.10;24.90;;;;;;2272019;61;20351;-65
2024/03/23 07:53:27;0.00;0.00;0.62;0.00;0.00;0.62;6.37;4.43;;;23.10;24.90;;;;;;2271823;61;20758;-65
2024/03/23 07:55:56;0.00;0.00;0.62;0.00;0.00;0.62;5.33;3.90;;;23.00;24.80;;;;;;2271896;61;20367;-64
2024/03/23 07:58:22;0.00;0.00;0.62;0.00;0.00;0.62;8.30;4.63;;;23.10;25.40;;;;;;2271630;61;20367;-65
2024/03/23 08:00:48;0.00;0.00;0.62;0.00;0.00;0.62;6.50;4.43;;;23.00;24.80;;;;;;2271723;61;20399;-65
2024/03/23 08:03:15;0.00;0.00;0.62;0.00;0.00;0.62;7.37;4.63;;;23.00;24.80;;;;;;2271202;61;20806;-65
2024/03/23 08:05:42;0.00;0.00;0.62;0.00;0.00;0.62;7.83;4.47;;;23.00;24.80;;;;;;2271452;61;20352;-65
2024/03/23 08:08:08;0.00;0.00;0.62;0.00;0.00;0.62;5.87;4.00;;;23.00;24.80;;;;;;2271816;61;20452;-65
2024/03/23 08:10:34;0.00;0.00;0.62;0.00;0.00;0.62;7.27;5.10;;;23.00;24.80;;;;;;2271610;61;20446;-64
2024/03/23 08:13:01;0.00;0.00;0.62;0.00;0.00;0.62;6.93;5.10;;;23.10;24.80;;;;;;2271903;61;20373;-65
2024/03/23 08:15:29;0.00;0.00;0.62;0.00;0.00;0.62;10.50;6.17;;;23.10;24.90;;;;;;2271636;61;20387;-65
2024/03/23 08:17:55;0.00;0.00;0.62;0.00;0.00;0.62;9.77;5.70;;;23.00;24.80;;;;;;2271369;61;20447;-65
2024/03/23 08:20:22;0.00;0.00;0.62;0.00;0.00;0.62;8.57;6.30;;;23.00;24.80;;;;;;2271950;61;20359;-65
2024/03/23 08:22:49;0.00;0.00;0.62;0.00;0.00;0.62;11.80;6.13;;;23.10;24.80;;;;;;2271447;61;20347;-65
2024/03/23 08:25:16;0.00;0.00;0.62;0.00;0.00;0.62;6.70;4.97;;;23.10;24.80;;;;;;2271423;61;20355;-64
2024/03/23 08:27:44;0.00;0.00;0.62;0.00;0.00;0.62;10.43;6.03;;;23.00;24.80;;;;;;2271028;61;20375;-65
2024/03/23 08:30:11;0.00;0.00;0.62;0.00;0.00;0.62;7.80;6.40;;;23.10;24.80;;;;;;2271459;61;20347;-64
2024/03/23 08:32:37;0.00;0.00;0.62;0.00;0.00;0.62;9.30;6.00;;;23.00;24.80;;;;;;2271907;61;20370;-65
2024/03/23 08:35:05;0.00;0.00;0.62;0.00;0.00;0.62;9.20;5.47;;;23.00;24.80;;;;;;2271504;61;20873;-66
2024/03/23 08:37:31;0.00;0.00;0.62;0.00;0.00;0.62;8.20;5.63;;;23.10;24.80;;;;;;2271576;61;20387;-66
2024/03/23 08:39:59;0.00;0.00;0.62;0.00;0.00;0.62;8.43;6.10;;;23.10;24.80;;;;;;2271390;61;20836;-66
2024/03/23 08:42:25;0.00;0.00;0.62;0.00;0.00;0.62;9.53;6.43;;;23.00;24.80;;;;;;2271431;61;20358;-66
2024/03/23 08:44:51;0.00;0.00;0.62;0.00;0.00;0.62;8.97;5.57;;;23.10;24.90;;;;;;2271436;61;20936;-66
2024/03/23 08:47:17;0.00;0.00;0.62;0.00;0.00;0.62;8.30;6.10;;;23.10;24.90;;;;;;2271654;61;20466;-66
2024/03/23 08:49:44;0.00;0.00;0.62;0.00;0.00;0.62;7.73;5.87;;;23.10;24.80;;;;;;2271683;61;20338;-66
2024/03/23 08:52:10;0.00;0.00;0.62;0.00;0.00;0.62;9.20;5.90;;;23.10;24.80;;;;;;2271525;61;20351;-65
2024/03/23 08:54:36;0.00;0.00;0.62;0.00;0.00;0.62;9.80;6.10;;;23.10;24.90;;;;;;2271516;61;20347;-65
2024/03/23 08:57:04;0.00;0.00;0.62;0.00;0.00;0.62;8.60;6.20;;;23.10;24.90;;;;;;2271328;61;20830;-65
2024/03/23 08:59:30;0.00;0.00;0.62;0.00;0.00;0.62;8.77;6.10;;;23.00;24.80;;;;;;2271014;60;20465;-65
2024/03/23 09:01:57;0.00;0.00;0.62;0.00;0.00;0.62;11.47;5.80;;;23.00;24.80;;;;;;2272125;61;20451;-65
2024/03/23 09:04:23;0.00;0.00;0.62;0.00;0.00;0.62;8.57;5.60;;;23.10;24.90;;;;;;2272222;61;20430;-65
2024/03/23 09:06:49;0.00;0.00;0.62;0.00;0.00;0.62;11.07;6.30;;;23.10;24.80;;;;;;2272239;61;20953;-65
2024/03/23 09:09:15;0.00;0.00;0.62;0.00;0.00;0.62;8.90;5.77;;;23.10;24.80;;;;;;2272271;61;20740;-65
2024/03/23 09:11:42;0.00;0.00;0.62;0.00;0.00;0.62;8.67;5.73;;;23.10;24.80;;;;;;2272046;61;20354;-66
2024/03/23 09:14:09;0.00;0.00;0.62;0.00;0.00;0.62;10.33;6.00;;;23.10;24.80;;;;;;2272093;60;20898;-67
2024/03/23 09:16:36;0.00;0.00;0.62;0.00;0.00;0.62;7.37;5.60;;;23.10;24.80;;;;;;2272468;61;20799;-65
2024/03/23 09:19:02;0.00;0.00;0.62;0.00;0.00;0.62;9.13;4.90;;;23.00;24.70;;;;;;2272178;61;20786;-66
2024/03/23 09:21:28;0.00;0.00;0.62;0.00;0.00;0.62;10.57;7.47;;;23.10;24.80;;;;;;2272333;61;20860;-65
2024/03/23 09:23:54;0.00;0.00;0.62;0.00;0.00;0.62;11.40;6.93;;;23.10;24.80;;;;;;2272356;61;20344;-66
2024/03/23 09:26:21;0.00;0.00;0.62;0.00;0.00;0.62;10.40;6.90;;;23.10;24.80;;;;;;2271724;61;20820;-65
2024/03/23 09:28:48;0.00;0.00;0.62;0.00;0.00;0.62;9.00;6.40;;;23.10;24.80;;;;;;2272137;61;20879;-64
2024/03/23 09:31:17;0.00;0.00;0.62;0.00;0.00;0.62;8.10;6.57;;;23.10;24.90;;;;;;2272153;61;20417;-66
2024/03/23 09:33:43;0.00;0.00;0.62;0.00;0.00;0.62;12.43;7.50;;;23.10;24.80;;;;;;2272105;61;20868;-65
2024/03/23 09:36:10;0.00;0.00;0.62;0.00;0.00;0.62;9.30;7.00;;;23.10;24.80;;;;;;2272062;61;20438;-65
2024/03/23 09:38:36;0.00;0.00;0.62;0.00;0.00;0.62;9.27;6.40;;;23.10;24.80;;;;;;2272390;61;20471;-65
2024/03/23 09:41:07;0.00;0.00;0.62;0.00;0.00;0.62;8.47;6.33;;;23.10;24.80;;;;;;2271716;61;20389;-64